sensor_id;sensor_type;location;lat;lon;timestamp;P1;durP1;ratioP1;P2;durP2;ratioP2
10523;SDS011;5310;48.638;9.060;2024-02-14T00:00:02;1.20;;;1.20;;
10523;SDS011;5310;48.638;9.060;2024-02-14T00:02:28;1.20;;;1.20;;
10523;SDS011;5310;48.638;9.060;2024-02-14T00:04:54;1.20;;;1.20;;
10523;SDS011;5310;48.638;9.060;2024-02-14T00:07:20;1.20;;;1.20;;
10523;SDS011;5310;48.638;9.060;2024-02-14T00:09:47;1.20;;;1.20;;
10523;SDS011;5310;48.638;9.060;2024-02-14T00:12:13;1.20;;;1.20;;
10523;SDS011;5310;48.638;9.060;2024-02-14T00:14:38;1.20;;;1.20;;
10523;SDS011;5310;48.638;9.060;2024-02-14T00:17:04;1.20;;;1.20;;
10523;SDS011;5310;48.638;9.060;2024-02-14T00:19:31;1.20;;;1.20;;
10523;SDS011;5310;48.638;9.060;2024-02-14T00:21:57;1.20;;;1.20;;
10523;SDS011;5310;48.638;9.060;2024-02-14T00:24:23;1.10;;;1.10;;
10523;SDS011;5310;48.638;9.060;2024-02-14T00:26:50;1.20;;;1.20;;
10523;SDS011;5310;48.638;9.060;2024-02-14T00:29:15;1.20;;;1.20;;
10523;SDS011;5310;48.638;9.060;2024-02-14T00:31:41;1.20;;;1.20;;
10523;SDS011;5310;48.638;9.060;2024-02-14T00:34:09;1.20;;;1.20;;
10523;SDS011;5310;48.638;9.060;2024-02-14T00:36:35;1.20;;;1.20;;
10523;SDS011;5310;48.638;9.060;2024-02-14T00:39:01;1.17;;;1.17;;
10523;SDS011;5310;48.638;9.060;2024-02-14T00:41:27;1.20;;;1.20;;
10523;SDS011;5310;48.638;9.060;2024-02-14T00:43:55;1.20;;;1.20;;
10523;SDS011;5310;48.638;9.060;2024-02-14T00:46:21;1.10;;;1.10;;
10523;SDS011;5310;48.638;9.060;2024-02-14T00:48:47;1.10;;;1.10;;
10523;SDS011;5310;48.638;9.060;2024-02-14T00:51:13;1.13;;;1.13;;
10523;SDS011;5310;48.638;9.060;2024-02-14T00:53:39;1.30;;;1.30;;
10523;SDS011;5310;48.638;9.060;2024-02-14T00:56:05;1.20;;;1.20;;
10523;SDS011;5310;48.638;9.060;2024-02-14T00:58:31;1.20;;;1.20;;
10523;SDS011;5310;48.638;9.060;2024-02-14T01:00:56;1.20;;;1.20;;
10523;SDS011;5310;48.638;9.060;2024-02-14T01:03:22;1.10;;;1.10;;
10523;SDS011;5310;48.638;9.060;2024-02-14T01:05:48;1.10;;;1.10;;
10523;SDS011;5310;48.638;9.060;2024-02-14T01:08:14;1.20;;;1.20;;
10523;SDS011;5310;48.638;9.060;2024-02-14T01:10:40;1.10;;;1.10;;
10523;SDS011;5310;48.638;9.060;2024-02-14T01:13:06;1.20;;;1.20;;
10523;SDS011;5310;48.638;9.060;2024-02-14T01:15:32;1.20;;;1.20;;
10523;SDS011;5310;48.638;9.060;2024-02-14T01:17:59;1.17;;;1.17;;
10523;SDS011;5310;48.638;9.060;2024-02-14T01:20:25;1.20;;;1.20;;
10523;SDS011;5310;48.638;9.060;2024-02-14T01:22:50;1.20;;;1.20;;
10523;SDS011;5310;48.638;9.060;2024-02-14T01:25:16;1.10;;;1.10;;
10523;SDS011;5310;48.638;9.060;2024-02-14T01:27:42;1.10;;;1.10;;
10523;SDS011;5310;48.638;9.060;2024-02-14T01:30:09;1.10;;;1.10;;
10523;SDS011;5310;48.638;9.060;2024-02-14T01:32:35;1.10;;;1.10;;
10523;SDS011;5310;48.638;9.060;2024-02-14T01:35:01;1.20;;;1.20;;
10523;SDS011;5310;48.638;9.060;2024-02-14T01:37:27;1.20;;;1.20;;
10523;SDS011;5310;48.638;9.060;2024-02-14T01:39:54;1.10;;;1.10;;
10523;SDS011;5310;48.638;9.060;2024-02-14T01:42:20;1.10;;;1.10;;
10523;SDS011;5310;48.638;9.060;2024-02-14T01:44:46;1.17;;;1.17;;
10523;SDS011;5310;48.638;9.060;2024-02-14T01:47:12;1.10;;;1.10;;
10523;SDS011;5310;48.638;9.060;2024-02-14T01:49:38;1.17;;;1.17;;
10523;SDS011;5310;48.638;9.060;2024-02-14T01:52:05;1.10;;;1.10;;
10523;SDS011;5310;48.638;9.060;2024-02-14T01:54:31;1.10;;;1.10;;
10523;SDS011;5310;48.638;9.060;2024-02-14T01:56:57;1.20;;;1.20;;
10523;SDS011;5310;48.638;9.060;2024-02-14T01:59:24;1.10;;;1.10;;
10523;SDS011;5310;48.638;9.060;2024-02-14T02:01:50;1.10;;;1.10;;
10523;SDS011;5310;48.638;9.060;2024-02-14T02:04:19;1.10;;;1.10;;
10523;SDS011;5310;48.638;9.060;2024-02-14T02:06:45;1.10;;;1.10;;
10523;SDS011;5310;48.638;9.060;2024-02-14T02:09:11;1.10;;;1.10;;
10523;SDS011;5310;48.638;9.060;2024-02-14T02:11:46;1.10;;;1.10;;
10523;SDS011;5310;48.638;9.060;2024-02-14T02:14:14;1.13;;;1.13;;
10523;SDS011;5310;48.638;9.060;2024-02-14T02:16:41;1.10;;;1.10;;
10523;SDS011;5310;48.638;9.060;2024-02-14T02:19:07;1.20;;;1.20;;
10523;SDS011;5310;48.638;9.060;2024-02-14T02:21:34;1.20;;;1.20;;
10523;SDS011;5310;48.638;9.060;2024-02-14T02:24:00;1.20;;;1.20;;
10523;SDS011;5310;48.638;9.060;2024-02-14T02:26:27;1.10;;;1.10;;
10523;SDS011;5310;48.638;9.060;2024-02-14T02:28:52;1.20;;;1.20;;
10523;SDS011;5310;48.638;9.060;2024-02-14T02:31:19;1.20;;;1.20;;
10523;SDS011;5310;48.638;9.060;2024-02-14T02:33:45;1.10;;;1.10;;
10523;SDS011;5310;48.638;9.060;2024-02-14T02:36:11;1.20;;;1.20;;
10523;SDS011;5310;48.638;9.060;2024-02-14T02:38:37;1.10;;;1.10;;
10523;SDS011;5310;48.638;9.060;2024-02-14T02:41:03;1.10;;;1.10;;
10523;SDS011;5310;48.638;9.060;2024-02-14T02:43:31;1.10;;;1.10;;
10523;SDS011;5310;48.638;9.060;2024-02-14T02:45:58;1.10;;;1.10;;
10523;SDS011;5310;48.638;9.060;2024-02-14T02:48:24;1.10;;;1.10;;
10523;SDS011;5310;48.638;9.060;2024-02-14T02:50:50;1.20;;;1.20;;
10523;SDS011;5310;48.638;9.060;2024-02-14T02:53:16;1.10;;;1.10;;
10523;SDS011;5310;48.638;9.060;2024-02-14T02:55:42;1.17;;;1.17;;
10523;SDS011;5310;48.638;9.060;2024-02-14T02:58:09;1.10;;;1.10;;
10523;SDS011;5310;48.638;9.060;2024-02-14T03:00:35;1.10;;;1.10;;
10523;SDS011;5310;48.638;9.060;2024-02-14T03:03:01;1.10;;;1.10;;
10523;SDS011;5310;48.638;9.060;2024-02-14T03:05:29;1.10;;;1.10;;
10523;SDS011;5310;48.638;9.060;2024-02-14T03:07:58;1.20;;;1.20;;
10523;SDS011;5310;48.638;9.060;2024-02-14T03:10:24;1.10;;;1.10;;
10523;SDS011;5310;48.638;9.060;2024-02-14T03:12:50;1.10;;;1.10;;
10523;SDS011;5310;48.638;9.060;2024-02-14T03:15:17;1.10;;;1.10;;
10523;SDS011;5310;48.638;9.060;2024-02-14T03:17:43;1.20;;;1.20;;
10523;SDS011;5310;48.638;9.060;2024-02-14T03:20:09;1.10;;;1.10;;
10523;SDS011;5310;48.638;9.060;2024-02-14T03:22:37;1.10;;;1.10;;
10523;SDS011;5310;48.638;9.060;2024-02-14T03:25:07;1.10;;;1.10;;
10523;SDS011;5310;48.638;9.060;2024-02-14T03:27:33;1.13;;;1.13;;
10523;SDS011;5310;48.638;9.060;2024-02-14T03:29:59;1.20;;;1.20;;
10523;SDS011;5310;48.638;9.060;2024-02-14T03:32:27;1.13;;;1.13;;
10523;SDS011;5310;48.638;9.060;2024-02-14T03:34:53;1.10;;;1.10;;
10523;SDS011;5310;48.638;9.060;2024-02-14T03:37:19;1.20;;;1.20;;
10523;SDS011;5310;48.638;9.060;2024-02-14T03:39:45;1.13;;;1.13;;
10523;SDS011;5310;48.638;9.060;2024-02-14T03:42:12;1.10;;;1.10;;
10523;SDS011;5310;48.638;9.060;2024-02-14T03:44:39;1.20;;;1.20;;
10523;SDS011;5310;48.638;9.060;2024-02-14T03:47:05;1.10;;;1.10;;
10523;SDS011;5310;48.638;9.060;2024-02-14T03:49:31;1.20;;;1.20;;
10523;SDS011;5310;48.638;9.060;2024-02-14T03:51:57;1.10;;;1.10;;
10523;SDS011;5310;48.638;9.060;2024-02-14T03:54:26;1.10;;;1.10;;
10523;SDS011;5310;48.638;9.060;2024-02-14T03:56:52;1.20;;;1.20;;
10523;SDS011;5310;48.638;9.060;2024-02-14T03:59:19;1.20;;;1.20;;
10523;SDS011;5310;48.638;9.060;2024-02-14T04:01:49;1.10;;;1.10;;
10523;SDS011;5310;48.638;9.060;2024-02-14T04:04:18;1.10;;;1.10;;
10523;SDS011;5310;48.638;9.060;2024-02-14T04:06:44;1.10;;;1.10;;
10523;SDS011;5310;48.638;9.060;2024-02-14T04:09:10;1.27;;;1.27;;
10523;SDS011;5310;48.638;9.060;2024-02-14T04:11:36;1.20;;;1.20;;
10523;SDS011;5310;48.638;9.060;2024-02-14T04:14:02;1.10;;;1.10;;
10523;SDS011;5310;48.638;9.060;2024-02-14T04:16:28;1.10;;;1.10;;
10523;SDS011;5310;48.638;9.060;2024-02-14T04:18:54;1.10;;;1.10;;
10523;SDS011;5310;48.638;9.060;2024-02-14T04:21:21;1.10;;;1.10;;
10523;SDS011;5310;48.638;9.060;2024-02-14T04:23:47;1.20;;;1.20;;
10523;SDS011;5310;48.638;9.060;2024-02-14T04:26:22;1.10;;;1.10;;
10523;SDS011;5310;48.638;9.060;2024-02-14T04:28:48;1.10;;;1.10;;
10523;SDS011;5310;48.638;9.060;2024-02-14T04:31:14;1.20;;;1.20;;
10523;SDS011;5310;48.638;9.060;2024-02-14T04:33:41;1.10;;;1.10;;
10523;SDS011;5310;48.638;9.060;2024-02-14T04:36:06;1.10;;;1.10;;
10523;SDS011;5310;48.638;9.060;2024-02-14T04:38:32;1.10;;;1.10;;
10523;SDS011;5310;48.638;9.060;2024-02-14T04:40:58;1.20;;;1.20;;
10523;SDS011;5310;48.638;9.060;2024-02-14T04:43:25;1.10;;;1.10;;
10523;SDS011;5310;48.638;9.060;2024-02-14T04:45:54;1.20;;;1.20;;
10523;SDS011;5310;48.638;9.060;2024-02-14T04:48:20;1.20;;;1.20;;
10523;SDS011;5310;48.638;9.060;2024-02-14T04:50:46;1.10;;;1.10;;
10523;SDS011;5310;48.638;9.060;2024-02-14T04:53:12;1.17;;;1.17;;
10523;SDS011;5310;48.638;9.060;2024-02-14T04:55:37;1.10;;;1.10;;
10523;SDS011;5310;48.638;9.060;2024-02-14T04:58:03;1.20;;;1.20;;
10523;SDS011;5310;48.638;9.060;2024-02-14T05:00:30;1.20;;;1.20;;
10523;SDS011;5310;48.638;9.060;2024-02-14T05:02:56;1.10;;;1.10;;
10523;SDS011;5310;48.638;9.060;2024-02-14T05:05:22;1.10;;;1.10;;
10523;SDS011;5310;48.638;9.060;2024-02-14T05:07:48;1.10;;;1.10;;
10523;SDS011;5310;48.638;9.060;2024-02-14T05:10:14;1.10;;;1.10;;
10523;SDS011;5310;48.638;9.060;2024-02-14T05:12:40;1.20;;;1.20;;
10523;SDS011;5310;48.638;9.060;2024-02-14T05:15:06;1.20;;;1.20;;
10523;SDS011;5310;48.638;9.060;2024-02-14T05:17:33;1.10;;;1.10;;
10523;SDS011;5310;48.638;9.060;2024-02-14T05:20:00;1.17;;;1.17;;
10523;SDS011;5310;48.638;9.060;2024-02-14T05:22:26;1.13;;;1.13;;
10523;SDS011;5310;48.638;9.060;2024-02-14T05:24:52;1.10;;;1.10;;
10523;SDS011;5310;48.638;9.060;2024-02-14T05:27:18;1.10;;;1.10;;
10523;SDS011;5310;48.638;9.060;2024-02-14T05:29:44;1.10;;;1.10;;
10523;SDS011;5310;48.638;9.060;2024-02-14T05:32:10;1.10;;;1.10;;
10523;SDS011;5310;48.638;9.060;2024-02-14T05:34:36;1.10;;;1.10;;
10523;SDS011;5310;48.638;9.060;2024-02-14T05:37:03;1.10;;;1.10;;
10523;SDS011;5310;48.638;9.060;2024-02-14T05:39:30;1.10;;;1.10;;
10523;SDS011;5310;48.638;9.060;2024-02-14T05:41:56;1.17;;;1.17;;
10523;SDS011;5310;48.638;9.060;2024-02-14T05:44:22;1.20;;;1.20;;
10523;SDS011;5310;48.638;9.060;2024-02-14T05:46:48;1.10;;;1.10;;
10523;SDS011;5310;48.638;9.060;2024-02-14T05:49:14;1.10;;;1.10;;
10523;SDS011;5310;48.638;9.060;2024-02-14T05:51:40;1.20;;;1.20;;
10523;SDS011;5310;48.638;9.060;2024-02-14T05:54:06;1.20;;;1.20;;
10523;SDS011;5310;48.638;9.060;2024-02-14T05:56:32;1.10;;;1.10;;
10523;SDS011;5310;48.638;9.060;2024-02-14T05:58:58;1.20;;;1.20;;
10523;SDS011;5310;48.638;9.060;2024-02-14T06:01:24;1.10;;;1.10;;
10523;SDS011;5310;48.638;9.060;2024-02-14T06:03:50;1.10;;;1.10;;
10523;SDS011;5310;48.638;9.060;2024-02-14T06:06:16;1.10;;;1.10;;
10523;SDS011;5310;48.638;9.060;2024-02-14T06:08:41;1.20;;;1.20;;
10523;SDS011;5310;48.638;9.060;2024-02-14T06:11:08;1.10;;;1.10;;
10523;SDS011;5310;48.638;9.060;2024-02-14T06:13:34;1.10;;;1.10;;
10523;SDS011;5310;48.638;9.060;2024-02-14T06:16:01;1.10;;;1.10;;
10523;SDS011;5310;48.638;9.060;2024-02-14T06:18:27;1.10;;;1.10;;
10523;SDS011;5310;48.638;9.060;2024-02-14T06:20:53;1.10;;;1.10;;
10523;SDS011;5310;48.638;9.060;2024-02-14T06:23:19;1.20;;;1.20;;
10523;SDS011;5310;48.638;9.060;2024-02-14T06:25:45;1.10;;;1.10;;
10523;SDS011;5310;48.638;9.060;2024-02-14T06:28:11;1.10;;;1.10;;
10523;SDS011;5310;48.638;9.060;2024-02-14T06:30:37;1.10;;;1.10;;
10523;SDS011;5310;48.638;9.060;2024-02-14T06:33:03;1.17;;;1.17;;
10523;SDS011;5310;48.638;9.060;2024-02-14T06:35:29;1.20;;;1.20;;
10523;SDS011;5310;48.638;9.060;2024-02-14T06:37:55;1.20;;;1.20;;
10523;SDS011;5310;48.638;9.060;2024-02-14T06:40:21;1.20;;;1.20;;
10523;SDS011;5310;48.638;9.060;2024-02-14T06:42:47;1.17;;;1.17;;
10523;SDS011;5310;48.638;9.060;2024-02-14T06:45:16;1.10;;;1.10;;
10523;SDS011;5310;48.638;9.060;2024-02-14T06:47:42;1.10;;;1.10;;
10523;SDS011;5310;48.638;9.060;2024-02-14T06:50:08;1.07;;;1.07;;
10523;SDS011;5310;48.638;9.060;2024-02-14T06:52:34;1.20;;;1.20;;
10523;SDS011;5310;48.638;9.060;2024-02-14T06:55:00;1.10;;;1.10;;
10523;SDS011;5310;48.638;9.060;2024-02-14T06:57:28;1.10;;;1.10;;
10523;SDS011;5310;48.638;9.060;2024-02-14T06:59:54;1.10;;;1.10;;
10523;SDS011;5310;48.638;9.060;2024-02-14T07:02:20;1.10;;;1.10;;
10523;SDS011;5310;48.638;9.060;2024-02-14T07:04:46;1.10;;;1.10;;
10523;SDS011;5310;48.638;9.060;2024-02-14T07:07:12;1.10;;;1.10;;
10523;SDS011;5310;48.638;9.060;2024-02-14T07:09:38;1.10;;;1.10;;
10523;SDS011;5310;48.638;9.060;2024-02-14T07:12:04;1.10;;;1.10;;
10523;SDS011;5310;48.638;9.060;2024-02-14T07:14:30;1.10;;;1.10;;
10523;SDS011;5310;48.638;9.060;2024-02-14T07:16:55;1.10;;;1.10;;
10523;SDS011;5310;48.638;9.060;2024-02-14T07:19:21;1.10;;;1.10;;
10523;SDS011;5310;48.638;9.060;2024-02-14T07:21:47;1.10;;;1.10;;
10523;SDS011;5310;48.638;9.060;2024-02-14T07:24:13;1.10;;;1.10;;
10523;SDS011;5310;48.638;9.060;2024-02-14T07:26:39;1.10;;;1.10;;
10523;SDS011;5310;48.638;9.060;2024-02-14T07:29:09;1.10;;;1.10;;
10523;SDS011;5310;48.638;9.060;2024-02-14T07:31:35;1.10;;;1.10;;
10523;SDS011;5310;48.638;9.060;2024-02-14T07:34:01;1.10;;;1.10;;
10523;SDS011;5310;48.638;9.060;2024-02-14T07:36:28;1.10;;;1.10;;
10523;SDS011;5310;48.638;9.060;2024-02-14T07:38:54;1.10;;;1.10;;
10523;SDS011;5310;48.638;9.060;2024-02-14T07:41:20;1.10;;;1.10;;
10523;SDS011;5310;48.638;9.060;2024-02-14T07:43:46;1.10;;;1.10;;
10523;SDS011;5310;48.638;9.060;2024-02-14T07:46:16;1.00;;;1.00;;
10523;SDS011;5310;48.638;9.060;2024-02-14T07:48:42;1.00;;;1.00;;
10523;SDS011;5310;48.638;9.060;2024-02-14T07:51:09;1.10;;;1.10;;
10523;SDS011;5310;48.638;9.060;2024-02-14T07:53:35;1.00;;;1.00;;
10523;SDS011;5310;48.638;9.060;2024-02-14T07:56:01;1.07;;;1.07;;
10523;SDS011;5310;48.638;9.060;2024-02-14T07:58:26;1.00;;;1.00;;
10523;SDS011;5310;48.638;9.060;2024-02-14T08:00:52;1.07;;;1.07;;
10523;SDS011;5310;48.638;9.060;2024-02-14T08:03:18;1.10;;;1.10;;
10523;SDS011;5310;48.638;9.060;2024-02-14T08:05:44;1.00;;;1.00;;
10523;SDS011;5310;48.638;9.060;2024-02-14T08:08:10;1.00;;;1.00;;
10523;SDS011;5310;48.638;9.060;2024-02-14T08:10:36;1.00;;;1.00;;
10523;SDS011;5310;48.638;9.060;2024-02-14T08:13:02;1.00;;;1.00;;
10523;SDS011;5310;48.638;9.060;2024-02-14T08:15:29;1.00;;;1.00;;
10523;SDS011;5310;48.638;9.060;2024-02-14T08:17:55;0.90;;;0.90;;
10523;SDS011;5310;48.638;9.060;2024-02-14T08:20:21;1.00;;;1.00;;
10523;SDS011;5310;48.638;9.060;2024-02-14T08:22:48;1.00;;;1.00;;
10523;SDS011;5310;48.638;9.060;2024-02-14T08:25:14;1.00;;;1.00;;
10523;SDS011;5310;48.638;9.060;2024-02-14T08:27:40;1.00;;;1.00;;
10523;SDS011;5310;48.638;9.060;2024-02-14T08:30:06;1.00;;;1.00;;
10523;SDS011;5310;48.638;9.060;2024-02-14T08:32:33;1.00;;;1.00;;
10523;SDS011;5310;48.638;9.060;2024-02-14T08:34:59;0.93;;;0.93;;
10523;SDS011;5310;48.638;9.060;2024-02-14T08:37:26;1.00;;;1.00;;
10523;SDS011;5310;48.638;9.060;2024-02-14T08:39:52;1.00;;;1.00;;
10523;SDS011;5310;48.638;9.060;2024-02-14T08:42:19;0.90;;;0.90;;
10523;SDS011;5310;48.638;9.060;2024-02-14T08:44:44;1.00;;;1.00;;
10523;SDS011;5310;48.638;9.060;2024-02-14T08:47:10;0.93;;;0.93;;
10523;SDS011;5310;48.638;9.060;2024-02-14T08:49:36;0.90;;;0.90;;
10523;SDS011;5310;48.638;9.060;2024-02-14T08:52:05;1.00;;;1.00;;
10523;SDS011;5310;48.638;9.060;2024-02-14T08:54:31;1.00;;;1.00;;
10523;SDS011;5310;48.638;9.060;2024-02-14T08:56:57;1.00;;;1.00;;
10523;SDS011;5310;48.638;9.060;2024-02-14T08:59:24;0.90;;;0.90;;
10523;SDS011;5310;48.638;9.060;2024-02-14T09:01:50;1.00;;;1.00;;
10523;SDS011;5310;48.638;9.060;2024-02-14T09:04:16;1.00;;;1.00;;
10523;SDS011;5310;48.638;9.060;2024-02-14T09:06:42;0.90;;;0.90;;
10523;SDS011;5310;48.638;9.060;2024-02-14T09:09:08;1.00;;;1.00;;
10523;SDS011;5310;48.638;9.060;2024-02-14T09:11:35;0.90;;;0.90;;
10523;SDS011;5310;48.638;9.060;2024-02-14T09:14:01;0.90;;;0.90;;
10523;SDS011;5310;48.638;9.060;2024-02-14T09:16:31;0.90;;;0.90;;
10523;SDS011;5310;48.638;9.060;2024-02-14T09:18:58;1.00;;;1.00;;
10523;SDS011;5310;48.638;9.060;2024-02-14T09:21:24;1.00;;;1.00;;
10523;SDS011;5310;48.638;9.060;2024-02-14T09:23:49;1.00;;;1.00;;
10523;SDS011;5310;48.638;9.060;2024-02-14T09:26:16;1.00;;;1.00;;
10523;SDS011;5310;48.638;9.060;2024-02-14T09:28:43;1.00;;;1.00;;
10523;SDS011;5310;48.638;9.060;2024-02-14T09:31:09;0.90;;;0.90;;
10523;SDS011;5310;48.638;9.060;2024-02-14T09:33:36;1.00;;;1.00;;
10523;SDS011;5310;48.638;9.060;2024-02-14T09:36:05;0.93;;;0.93;;
10523;SDS011;5310;48.638;9.060;2024-02-14T09:38:31;1.00;;;1.00;;
10523;SDS011;5310;48.638;9.060;2024-02-14T09:40:58;1.00;;;1.00;;
10523;SDS011;5310;48.638;9.060;2024-02-14T09:43:39;0.90;;;0.90;;
10523;SDS011;5310;48.638;9.060;2024-02-14T09:46:06;1.00;;;1.00;;
10523;SDS011;5310;48.638;9.060;2024-02-14T09:48:32;0.90;;;0.90;;
10523;SDS011;5310;48.638;9.060;2024-02-14T09:50:59;1.00;;;1.00;;
10523;SDS011;5310;48.638;9.060;2024-02-14T09:53:25;1.00;;;1.00;;
10523;SDS011;5310;48.638;9.060;2024-02-14T09:55:53;0.90;;;0.90;;
10523;SDS011;5310;48.638;9.060;2024-02-14T09:58:20;1.00;;;1.00;;
10523;SDS011;5310;48.638;9.060;2024-02-14T10:00:46;0.90;;;0.90;;
10523;SDS011;5310;48.638;9.060;2024-02-14T10:03:12;1.00;;;1.00;;
10523;SDS011;5310;48.638;9.060;2024-02-14T10:05:38;1.00;;;1.00;;
10523;SDS011;5310;48.638;9.060;2024-02-14T10:08:04;0.90;;;0.90;;
10523;SDS011;5310;48.638;9.060;2024-02-14T10:10:31;1.00;;;1.00;;
10523;SDS011;5310;48.638;9.060;2024-02-14T10:13:00;1.00;;;1.00;;
10523;SDS011;5310;48.638;9.060;2024-02-14T10:15:26;1.00;;;1.00;;
10523;SDS011;5310;48.638;9.060;2024-02-14T10:17:52;1.00;;;1.00;;
10523;SDS011;5310;48.638;9.060;2024-02-14T10:20:18;1.00;;;1.00;;
10523;SDS011;5310;48.638;9.060;2024-02-14T10:22:46;0.90;;;0.90;;
10523;SDS011;5310;48.638;9.060;2024-02-14T10:25:13;0.90;;;0.90;;
10523;SDS011;5310;48.638;9.060;2024-02-14T10:27:40;1.00;;;1.00;;
10523;SDS011;5310;48.638;9.060;2024-02-14T10:30:06;0.90;;;0.90;;
10523;SDS011;5310;48.638;9.060;2024-02-14T10:32:34;1.07;;;1.07;;
10523;SDS011;5310;48.638;9.060;2024-02-14T10:35:01;0.90;;;0.90;;
10523;SDS011;5310;48.638;9.060;2024-02-14T10:37:29;1.00;;;1.00;;
10523;SDS011;5310;48.638;9.060;2024-02-14T10:39:56;0.90;;;0.90;;
10523;SDS011;5310;48.638;9.060;2024-02-14T10:42:23;0.90;;;0.90;;
10523;SDS011;5310;48.638;9.060;2024-02-14T10:44:49;0.90;;;0.90;;
10523;SDS011;5310;48.638;9.060;2024-02-14T10:47:19;0.90;;;0.90;;
10523;SDS011;5310;48.638;9.060;2024-02-14T10:49:46;0.90;;;0.90;;
10523;SDS011;5310;48.638;9.060;2024-02-14T10:52:12;0.90;;;0.90;;
10523;SDS011;5310;48.638;9.060;2024-02-14T10:54:39;0.90;;;0.90;;
10523;SDS011;5310;48.638;9.060;2024-02-14T10:57:06;0.93;;;0.93;;
10523;SDS011;5310;48.638;9.060;2024-02-14T10:59:38;0.80;;;0.80;;
10523;SDS011;5310;48.638;9.060;2024-02-14T11:02:06;0.77;;;0.77;;
10523;SDS011;5310;48.638;9.060;2024-02-14T11:04:32;0.80;;;0.80;;
10523;SDS011;5310;48.638;9.060;2024-02-14T11:06:58;0.80;;;0.80;;
10523;SDS011;5310;48.638;9.060;2024-02-14T11:09:35;0.80;;;0.80;;
10523;SDS011;5310;48.638;9.060;2024-02-14T11:12:01;0.80;;;0.80;;
10523;SDS011;5310;48.638;9.060;2024-02-14T11:14:34;0.90;;;0.90;;
10523;SDS011;5310;48.638;9.060;2024-02-14T11:17:09;0.80;;;0.80;;
10523;SDS011;5310;48.638;9.060;2024-02-14T11:19:35;0.80;;;0.80;;
10523;SDS011;5310;48.638;9.060;2024-02-14T11:22:11;0.80;;;0.80;;
10523;SDS011;5310;48.638;9.060;2024-02-14T11:24:40;0.80;;;0.80;;
10523;SDS011;5310;48.638;9.060;2024-02-14T11:27:09;0.70;;;0.70;;
10523;SDS011;5310;48.638;9.060;2024-02-14T11:29:38;0.80;;;0.80;;
10523;SDS011;5310;48.638;9.060;2024-02-14T11:32:16;0.80;;;0.80;;
10523;SDS011;5310;48.638;9.060;2024-02-14T11:34:43;1.00;;;1.00;;
10523;SDS011;5310;48.638;9.060;2024-02-14T11:37:09;0.80;;;0.80;;
10523;SDS011;5310;48.638;9.060;2024-02-14T11:39:34;0.80;;;0.80;;
10523;SDS011;5310;48.638;9.060;2024-02-14T11:42:00;0.83;;;0.83;;
10523;SDS011;5310;48.638;9.060;2024-02-14T11:44:26;0.80;;;0.80;;
10523;SDS011;5310;48.638;9.060;2024-02-14T11:46:52;0.90;;;0.90;;
10523;SDS011;5310;48.638;9.060;2024-02-14T11:49:19;0.70;;;0.70;;
10523;SDS011;5310;48.638;9.060;2024-02-14T11:51:45;0.80;;;0.80;;
10523;SDS011;5310;48.638;9.060;2024-02-14T11:54:12;0.80;;;0.80;;
10523;SDS011;5310;48.638;9.060;2024-02-14T11:56:38;0.70;;;0.70;;
10523;SDS011;5310;48.638;9.060;2024-02-14T11:59:05;0.80;;;0.80;;
10523;SDS011;5310;48.638;9.060;2024-02-14T12:01:32;0.80;;;0.80;;
10523;SDS011;5310;48.638;9.060;2024-02-14T12:04:00;0.70;;;0.70;;
10523;SDS011;5310;48.638;9.060;2024-02-14T12:06:27;0.80;;;0.80;;
10523;SDS011;5310;48.638;9.060;2024-02-14T12:08:54;0.70;;;0.70;;
10523;SDS011;5310;48.638;9.060;2024-02-14T12:11:20;0.70;;;0.70;;
10523;SDS011;5310;48.638;9.060;2024-02-14T12:13:49;0.70;;;0.70;;
10523;SDS011;5310;48.638;9.060;2024-02-14T12:16:15;0.60;;;0.60;;
10523;SDS011;5310;48.638;9.060;2024-02-14T12:18:41;0.70;;;0.70;;
10523;SDS011;5310;48.638;9.060;2024-02-14T12:21:07;0.70;;;0.70;;
10523;SDS011;5310;48.638;9.060;2024-02-14T12:23:33;0.70;;;0.70;;
10523;SDS011;5310;48.638;9.060;2024-02-14T12:26:02;0.70;;;0.70;;
10523;SDS011;5310;48.638;9.060;2024-02-14T12:28:29;0.70;;;0.70;;
10523;SDS011;5310;48.638;9.060;2024-02-14T12:30:56;0.60;;;0.60;;
10523;SDS011;5310;48.638;9.060;2024-02-14T12:33:26;0.70;;;0.70;;
10523;SDS011;5310;48.638;9.060;2024-02-14T12:35:55;0.67;;;0.67;;
10523;SDS011;5310;48.638;9.060;2024-02-14T12:38:22;0.70;;;0.70;;
10523;SDS011;5310;48.638;9.060;2024-02-14T12:40:48;0.60;;;0.60;;
10523;SDS011;5310;48.638;9.060;2024-02-14T12:43:14;0.70;;;0.70;;
10523;SDS011;5310;48.638;9.060;2024-02-14T12:45:43;0.70;;;0.70;;
10523;SDS011;5310;48.638;9.060;2024-02-14T12:48:10;0.60;;;0.60;;
10523;SDS011;5310;48.638;9.060;2024-02-14T12:50:37;0.60;;;0.60;;
10523;SDS011;5310;48.638;9.060;2024-02-14T12:53:03;0.70;;;0.70;;
10523;SDS011;5310;48.638;9.060;2024-02-14T12:55:29;0.67;;;0.67;;
10523;SDS011;5310;48.638;9.060;2024-02-14T12:57:55;0.60;;;0.60;;
10523;SDS011;5310;48.638;9.060;2024-02-14T13:00:22;0.60;;;0.60;;
10523;SDS011;5310;48.638;9.060;2024-02-14T13:02:48;0.60;;;0.60;;
10523;SDS011;5310;48.638;9.060;2024-02-14T13:05:14;0.67;;;0.67;;
10523;SDS011;5310;48.638;9.060;2024-02-14T13:07:40;0.70;;;0.70;;
10523;SDS011;5310;48.638;9.060;2024-02-14T13:10:06;0.77;;;0.77;;
10523;SDS011;5310;48.638;9.060;2024-02-14T13:12:34;0.87;;;0.87;;
10523;SDS011;5310;48.638;9.060;2024-02-14T13:15:00;0.80;;;0.80;;
10523;SDS011;5310;48.638;9.060;2024-02-14T13:17:26;0.70;;;0.70;;
10523;SDS011;5310;48.638;9.060;2024-02-14T13:19:52;0.77;;;0.77;;
10523;SDS011;5310;48.638;9.060;2024-02-14T13:22:18;0.70;;;0.70;;
10523;SDS011;5310;48.638;9.060;2024-02-14T13:24:44;0.80;;;0.80;;
10523;SDS011;5310;48.638;9.060;2024-02-14T13:27:10;0.70;;;0.70;;
10523;SDS011;5310;48.638;9.060;2024-02-14T13:29:37;0.70;;;0.70;;
10523;SDS011;5310;48.638;9.060;2024-02-14T13:32:03;0.70;;;0.70;;
10523;SDS011;5310;48.638;9.060;2024-02-14T13:34:32;0.70;;;0.70;;
10523;SDS011;5310;48.638;9.060;2024-02-14T13:36:58;0.80;;;0.80;;
10523;SDS011;5310;48.638;9.060;2024-02-14T13:39:24;0.70;;;0.70;;
10523;SDS011;5310;48.638;9.060;2024-02-14T13:41:50;0.63;;;0.63;;
10523;SDS011;5310;48.638;9.060;2024-02-14T13:44:17;0.70;;;0.70;;
10523;SDS011;5310;48.638;9.060;2024-02-14T13:46:43;0.60;;;0.60;;
10523;SDS011;5310;48.638;9.060;2024-02-14T13:49:10;0.70;;;0.70;;
10523;SDS011;5310;48.638;9.060;2024-02-14T13:51:36;0.70;;;0.70;;
10523;SDS011;5310;48.638;9.060;2024-02-14T13:54:02;0.80;;;0.80;;
10523;SDS011;5310;48.638;9.060;2024-02-14T13:56:28;0.70;;;0.70;;
10523;SDS011;5310;48.638;9.060;2024-02-14T13:58:54;0.80;;;0.80;;
10523;SDS011;5310;48.638;9.060;2024-02-14T14:01:20;0.80;;;0.80;;
10523;SDS011;5310;48.638;9.060;2024-02-14T14:03:46;0.90;;;0.90;;
10523;SDS011;5310;48.638;9.060;2024-02-14T14:06:15;0.80;;;0.80;;
10523;SDS011;5310;48.638;9.060;2024-02-14T14:08:41;0.90;;;0.90;;
10523;SDS011;5310;48.638;9.060;2024-02-14T14:11:07;1.00;;;1.00;;
10523;SDS011;5310;48.638;9.060;2024-02-14T14:13:33;0.90;;;0.90;;
10523;SDS011;5310;48.638;9.060;2024-02-14T14:16:00;0.80;;;0.80;;
10523;SDS011;5310;48.638;9.060;2024-02-14T14:18:25;1.00;;;1.00;;
10523;SDS011;5310;48.638;9.060;2024-02-14T14:20:51;0.90;;;0.90;;
10523;SDS011;5310;48.638;9.060;2024-02-14T14:23:17;0.90;;;0.90;;
10523;SDS011;5310;48.638;9.060;2024-02-14T14:25:43;0.80;;;0.80;;
10523;SDS011;5310;48.638;9.060;2024-02-14T14:28:09;0.90;;;0.90;;
10523;SDS011;5310;48.638;9.060;2024-02-14T14:30:34;0.90;;;0.90;;
10523;SDS011;5310;48.638;9.060;2024-02-14T14:33:01;0.77;;;0.77;;
10523;SDS011;5310;48.638;9.060;2024-02-14T14:35:27;0.70;;;0.70;;
10523;SDS011;5310;48.638;9.060;2024-02-14T14:37:56;0.90;;;0.90;;
10523;SDS011;5310;48.638;9.060;2024-02-14T14:40:22;0.70;;;0.70;;
10523;SDS011;5310;48.638;9.060;2024-02-14T14:42:49;0.77;;;0.77;;
10523;SDS011;5310;48.638;9.060;2024-02-14T14:45:15;0.70;;;0.70;;
10523;SDS011;5310;48.638;9.060;2024-02-14T14:47:41;0.80;;;0.80;;
10523;SDS011;5310;48.638;9.060;2024-02-14T14:50:07;0.80;;;0.80;;
10523;SDS011;5310;48.638;9.060;2024-02-14T14:52:33;0.90;;;0.90;;
10523;SDS011;5310;48.638;9.060;2024-02-14T14:54:59;0.70;;;0.70;;